sensor_id;sensor_type;location;lat;lon;timestamp;P1;durP1;ratioP1;P2;durP2;ratioP2
73474;SDS011;61711;52.266;10.542;2023-03-01T00:01:31;25.65;;;12.00;;
73474;SDS011;61711;52.266;10.542;2023-03-01T00:03:58;22.20;;;11.63;;
73474;SDS011;61711;52.266;10.542;2023-03-01T00:06:24;21.60;;;11.75;;
73474;SDS011;61711;52.266;10.542;2023-03-01T00:08:50;23.65;;;11.95;;
73474;SDS011;61711;52.266;10.542;2023-03-01T00:11:21;23.60;;;11.90;;
73474;SDS011;61711;52.266;10.542;2023-03-01T00:13:47;20.85;;;11.65;;
73474;SDS011;61711;52.266;10.542;2023-03-01T00:16:15;22.75;;;12.05;;
73474;SDS011;61711;52.266;10.542;2023-03-01T00:18:41;22.90;;;11.05;;
73474;SDS011;61711;52.266;10.542;2023-03-01T00:21:07;20.13;;;11.18;;
73474;SDS011;61711;52.266;10.542;2023-03-01T00:23:34;22.98;;;11.02;;
73474;SDS011;61711;52.266;10.542;2023-03-01T00:26:00;22.25;;;11.32;;
73474;SDS011;61711;52.266;10.542;2023-03-01T00:28:26;27.80;;;11.38;;
73474;SDS011;61711;52.266;10.542;2023-03-01T00:30:52;24.48;;;10.05;;
73474;SDS011;61711;52.266;10.542;2023-03-01T00:33:18;20.60;;;10.43;;
73474;SDS011;61711;52.266;10.542;2023-03-01T00:35:44;21.00;;;10.15;;
73474;SDS011;61711;52.266;10.542;2023-03-01T00:38:10;20.73;;;10.10;;
73474;SDS011;61711;52.266;10.542;2023-03-01T00:40:36;18.33;;;10.45;;
73474;SDS011;61711;52.266;10.542;2023-03-01T00:43:03;23.67;;;11.32;;
73474;SDS011;61711;52.266;10.542;2023-03-01T00:45:29;21.15;;;11.38;;
73474;SDS011;61711;52.266;10.542;2023-03-01T00:47:58;21.58;;;11.15;;
73474;SDS011;61711;52.266;10.542;2023-03-01T00:50:25;20.77;;;10.68;;
73474;SDS011;61711;52.266;10.542;2023-03-01T00:52:54;22.55;;;11.95;;
73474;SDS011;61711;52.266;10.542;2023-03-01T00:55:21;18.80;;;10.27;;
73474;SDS011;61711;52.266;10.542;2023-03-01T00:57:47;22.20;;;11.05;;
73474;SDS011;61711;52.266;10.542;2023-03-01T01:00:13;21.83;;;11.20;;
73474;SDS011;61711;52.266;10.542;2023-03-01T01:02:39;18.20;;;9.40;;
73474;SDS011;61711;52.266;10.542;2023-03-01T01:05:06;16.83;;;9.23;;
73474;SDS011;61711;52.266;10.542;2023-03-01T01:07:32;18.35;;;9.07;;
73474;SDS011;61711;52.266;10.542;2023-03-01T01:09:58;18.13;;;8.75;;
73474;SDS011;61711;52.266;10.542;2023-03-01T01:12:24;17.08;;;8.65;;
73474;SDS011;61711;52.266;10.542;2023-03-01T01:14:50;17.73;;;8.45;;
73474;SDS011;61711;52.266;10.542;2023-03-01T01:17:16;19.35;;;9.70;;
73474;SDS011;61711;52.266;10.542;2023-03-01T01:19:42;18.20;;;9.43;;
73474;SDS011;61711;52.266;10.542;2023-03-01T01:22:08;19.27;;;10.40;;
73474;SDS011;61711;52.266;10.542;2023-03-01T01:24:35;19.48;;;10.05;;
73474;SDS011;61711;52.266;10.542;2023-03-01T01:27:01;19.27;;;9.90;;
73474;SDS011;61711;52.266;10.542;2023-03-01T01:29:27;20.98;;;9.57;;
73474;SDS011;61711;52.266;10.542;2023-03-01T01:31:53;18.50;;;9.45;;
73474;SDS011;61711;52.266;10.542;2023-03-01T01:34:20;19.55;;;9.23;;
73474;SDS011;61711;52.266;10.542;2023-03-01T01:36:53;18.55;;;9.43;;
73474;SDS011;61711;52.266;10.542;2023-03-01T01:39:19;20.13;;;10.00;;
73474;SDS011;61711;52.266;10.542;2023-03-01T01:41:46;19.30;;;9.50;;
73474;SDS011;61711;52.266;10.542;2023-03-01T01:44:20;21.05;;;10.35;;
73474;SDS011;61711;52.266;10.542;2023-03-01T01:51:49;18.73;;;9.95;;
73474;SDS011;61711;52.266;10.542;2023-03-01T01:54:21;19.50;;;9.80;;
73474;SDS011;61711;52.266;10.542;2023-03-01T01:56:51;18.00;;;8.88;;
73474;SDS011;61711;52.266;10.542;2023-03-01T01:59:18;24.38;;;10.38;;
73474;SDS011;61711;52.266;10.542;2023-03-01T02:01:49;24.52;;;10.35;;
73474;SDS011;61711;52.266;10.542;2023-03-01T02:04:15;18.63;;;9.05;;
73474;SDS011;61711;52.266;10.542;2023-03-01T02:09:21;16.05;;;8.80;;
73474;SDS011;61711;52.266;10.542;2023-03-01T02:11:47;19.33;;;8.32;;
73474;SDS011;61711;52.266;10.542;2023-03-01T02:14:14;16.50;;;8.30;;
73474;SDS011;61711;52.266;10.542;2023-03-01T02:16:41;20.92;;;9.20;;
73474;SDS011;61711;52.266;10.542;2023-03-01T02:19:07;18.40;;;9.00;;
73474;SDS011;61711;52.266;10.542;2023-03-01T02:24:26;18.65;;;9.02;;
73474;SDS011;61711;52.266;10.542;2023-03-01T02:26:53;17.92;;;9.45;;
73474;SDS011;61711;52.266;10.542;2023-03-01T02:29:21;18.50;;;8.68;;
73474;SDS011;61711;52.266;10.542;2023-03-01T02:31:47;16.63;;;8.93;;
73474;SDS011;61711;52.266;10.542;2023-03-01T02:34:15;17.05;;;9.27;;
73474;SDS011;61711;52.266;10.542;2023-03-01T02:39:12;18.90;;;9.10;;
73474;SDS011;61711;52.266;10.542;2023-03-01T02:41:42;20.35;;;8.90;;
73474;SDS011;61711;52.266;10.542;2023-03-01T02:44:09;17.35;;;8.43;;
73474;SDS011;61711;52.266;10.542;2023-03-01T02:46:42;15.43;;;8.15;;
73474;SDS011;61711;52.266;10.542;2023-03-01T02:49:27;18.73;;;9.15;;
73474;SDS011;61711;52.266;10.542;2023-03-01T02:52:14;20.23;;;9.00;;
73474;SDS011;61711;52.266;10.542;2023-03-01T02:55:15;16.80;;;8.80;;
73474;SDS011;61711;52.266;10.542;2023-03-01T02:57:35;17.52;;;8.48;;
73474;SDS011;61711;52.266;10.542;2023-03-01T03:00:04;17.77;;;8.85;;
73474;SDS011;61711;52.266;10.542;2023-03-01T03:02:33;19.17;;;9.07;;
73474;SDS011;61711;52.266;10.542;2023-03-01T03:07:28;21.67;;;9.50;;
73474;SDS011;61711;52.266;10.542;2023-03-01T03:09:54;18.25;;;9.40;;
73474;SDS011;61711;52.266;10.542;2023-03-01T03:12:20;19.15;;;9.65;;
73474;SDS011;61711;52.266;10.542;2023-03-01T03:14:46;19.85;;;9.32;;
73474;SDS011;61711;52.266;10.542;2023-03-01T03:17:12;18.55;;;9.20;;
73474;SDS011;61711;52.266;10.542;2023-03-01T03:19:38;20.27;;;9.05;;
73474;SDS011;61711;52.266;10.542;2023-03-01T03:22:04;18.52;;;9.15;;
73474;SDS011;61711;52.266;10.542;2023-03-01T03:24:30;20.67;;;9.00;;
73474;SDS011;61711;52.266;10.542;2023-03-01T03:27:02;22.48;;;9.48;;
73474;SDS011;61711;52.266;10.542;2023-03-01T03:29:29;20.55;;;8.80;;
73474;SDS011;61711;52.266;10.542;2023-03-01T03:31:55;19.15;;;9.43;;
73474;SDS011;61711;52.266;10.542;2023-03-01T03:34:21;18.20;;;8.68;;
73474;SDS011;61711;52.266;10.542;2023-03-01T03:36:47;18.92;;;9.20;;
73474;SDS011;61711;52.266;10.542;2023-03-01T03:39:13;18.05;;;8.23;;
73474;SDS011;61711;52.266;10.542;2023-03-01T03:41:39;17.42;;;8.77;;
73474;SDS011;61711;52.266;10.542;2023-03-01T03:44:05;17.73;;;8.05;;
73474;SDS011;61711;52.266;10.542;2023-03-01T03:46:31;17.95;;;7.88;;
73474;SDS011;61711;52.266;10.542;2023-03-01T03:48:57;17.67;;;8.27;;
73474;SDS011;61711;52.266;10.542;2023-03-01T03:51:23;14.48;;;7.88;;
73474;SDS011;61711;52.266;10.542;2023-03-01T03:53:49;15.20;;;8.23;;
73474;SDS011;61711;52.266;10.542;2023-03-01T03:56:15;16.42;;;8.60;;
73474;SDS011;61711;52.266;10.542;2023-03-01T03:58:41;16.90;;;8.57;;
73474;SDS011;61711;52.266;10.542;2023-03-01T04:01:07;17.48;;;8.88;;
73474;SDS011;61711;52.266;10.542;2023-03-01T04:03:34;15.32;;;7.70;;
73474;SDS011;61711;52.266;10.542;2023-03-01T04:06:00;15.43;;;8.30;;
73474;SDS011;61711;52.266;10.542;2023-03-01T04:08:26;15.85;;;8.20;;
73474;SDS011;61711;52.266;10.542;2023-03-01T04:10:56;18.67;;;8.82;;
73474;SDS011;61711;52.266;10.542;2023-03-01T04:13:23;18.35;;;8.07;;
73474;SDS011;61711;52.266;10.542;2023-03-01T04:15:53;16.10;;;8.50;;
73474;SDS011;61711;52.266;10.542;2023-03-01T04:18:20;15.85;;;7.57;;
73474;SDS011;61711;52.266;10.542;2023-03-01T04:20:46;14.00;;;8.13;;
73474;SDS011;61711;52.266;10.542;2023-03-01T04:23:17;16.48;;;7.97;;
73474;SDS011;61711;52.266;10.542;2023-03-01T04:25:53;19.60;;;8.63;;
73474;SDS011;61711;52.266;10.542;2023-03-01T04:28:20;17.90;;;8.65;;
73474;SDS011;61711;52.266;10.542;2023-03-01T04:30:46;18.15;;;7.93;;
73474;SDS011;61711;52.266;10.542;2023-03-01T04:33:12;15.10;;;8.30;;
73474;SDS011;61711;52.266;10.542;2023-03-01T04:35:38;16.25;;;7.82;;
73474;SDS011;61711;52.266;10.542;2023-03-01T04:38:05;24.02;;;12.38;;
73474;SDS011;61711;52.266;10.542;2023-03-01T04:40:31;19.63;;;9.98;;
73474;SDS011;61711;52.266;10.542;2023-03-01T04:42:57;22.60;;;10.07;;
73474;SDS011;61711;52.266;10.542;2023-03-01T04:45:23;20.83;;;9.30;;
73474;SDS011;61711;52.266;10.542;2023-03-01T04:47:49;20.98;;;9.40;;
73474;SDS011;61711;52.266;10.542;2023-03-01T04:50:17;19.55;;;8.82;;
73474;SDS011;61711;52.266;10.542;2023-03-01T04:52:45;19.17;;;8.77;;
73474;SDS011;61711;52.266;10.542;2023-03-01T04:55:11;21.08;;;9.15;;
73474;SDS011;61711;52.266;10.542;2023-03-01T04:57:37;20.05;;;9.85;;
73474;SDS011;61711;52.266;10.542;2023-03-01T05:00:04;15.98;;;8.05;;
73474;SDS011;61711;52.266;10.542;2023-03-01T05:02:45;16.17;;;8.35;;
73474;SDS011;61711;52.266;10.542;2023-03-01T05:05:11;21.27;;;9.60;;
73474;SDS011;61711;52.266;10.542;2023-03-01T05:07:38;17.30;;;8.68;;
73474;SDS011;61711;52.266;10.542;2023-03-01T05:10:04;18.23;;;8.57;;
73474;SDS011;61711;52.266;10.542;2023-03-01T05:12:30;20.10;;;8.85;;
73474;SDS011;61711;52.266;10.542;2023-03-01T05:14:56;17.33;;;8.75;;
73474;SDS011;61711;52.266;10.542;2023-03-01T05:17:23;17.88;;;8.45;;
73474;SDS011;61711;52.266;10.542;2023-03-01T05:19:49;18.13;;;9.05;;
73474;SDS011;61711;52.266;10.542;2023-03-01T05:22:15;17.88;;;9.55;;
73474;SDS011;61711;52.266;10.542;2023-03-01T05:24:41;16.73;;;8.20;;
73474;SDS011;61711;52.266;10.542;2023-03-01T05:27:07;20.67;;;8.98;;
73474;SDS011;61711;52.266;10.542;2023-03-01T05:29:33;17.88;;;8.50;;
73474;SDS011;61711;52.266;10.542;2023-03-01T05:32:00;19.65;;;9.05;;
73474;SDS011;61711;52.266;10.542;2023-03-01T05:34:31;19.25;;;8.88;;
73474;SDS011;61711;52.266;10.542;2023-03-01T05:36:57;16.90;;;8.13;;
73474;SDS011;61711;52.266;10.542;2023-03-01T05:39:24;17.08;;;8.18;;
73474;SDS011;61711;52.266;10.542;2023-03-01T05:41:54;18.10;;;8.93;;
73474;SDS011;61711;52.266;10.542;2023-03-01T05:44:21;19.98;;;9.82;;
73474;SDS011;61711;52.266;10.542;2023-03-01T05:46:48;18.48;;;9.05;;
73474;SDS011;61711;52.266;10.542;2023-03-01T05:49:14;20.48;;;9.70;;
73474;SDS011;61711;52.266;10.542;2023-03-01T05:51:41;15.80;;;8.75;;
73474;SDS011;61711;52.266;10.542;2023-03-01T05:54:07;22.25;;;9.50;;
73474;SDS011;61711;52.266;10.542;2023-03-01T05:56:34;18.35;;;9.77;;
73474;SDS011;61711;52.266;10.542;2023-03-01T05:59:00;20.27;;;9.32;;
73474;SDS011;61711;52.266;10.542;2023-03-01T06:01:27;15.48;;;8.30;;
73474;SDS011;61711;52.266;10.542;2023-03-01T06:03:54;15.70;;;7.68;;
73474;SDS011;61711;52.266;10.542;2023-03-01T06:06:21;18.23;;;8.90;;
73474;SDS011;61711;52.266;10.542;2023-03-01T06:08:47;18.15;;;8.40;;
73474;SDS011;61711;52.266;10.542;2023-03-01T06:11:13;16.80;;;8.40;;
73474;SDS011;61711;52.266;10.542;2023-03-01T06:13:40;16.30;;;7.95;;
73474;SDS011;61711;52.266;10.542;2023-03-01T06:16:07;16.17;;;8.18;;
73474;SDS011;61711;52.266;10.542;2023-03-01T06:18:33;16.50;;;8.00;;
73474;SDS011;61711;52.266;10.542;2023-03-01T06:20:59;15.25;;;7.43;;
73474;SDS011;61711;52.266;10.542;2023-03-01T06:23:25;18.23;;;8.50;;
73474;SDS011;61711;52.266;10.542;2023-03-01T06:25:51;18.17;;;8.65;;
73474;SDS011;61711;52.266;10.542;2023-03-01T06:28:17;15.30;;;9.02;;
73474;SDS011;61711;52.266;10.542;2023-03-01T06:30:43;18.65;;;8.68;;
73474;SDS011;61711;52.266;10.542;2023-03-01T06:33:09;20.73;;;8.07;;
73474;SDS011;61711;52.266;10.542;2023-03-01T06:35:35;18.25;;;7.78;;
73474;SDS011;61711;52.266;10.542;2023-03-01T06:38:02;18.33;;;8.52;;
73474;SDS011;61711;52.266;10.542;2023-03-01T06:40:29;17.10;;;8.57;;
73474;SDS011;61711;52.266;10.542;2023-03-01T06:42:56;17.65;;;7.85;;
73474;SDS011;61711;52.266;10.542;2023-03-01T06:45:22;19.35;;;8.15;;
73474;SDS011;61711;52.266;10.542;2023-03-01T06:47:48;24.95;;;13.50;;
73474;SDS011;61711;52.266;10.542;2023-03-01T06:50:14;17.15;;;9.27;;
73474;SDS011;61711;52.266;10.542;2023-03-01T06:52:41;19.38;;;8.70;;
73474;SDS011;61711;52.266;10.542;2023-03-01T06:55:09;20.08;;;9.38;;
73474;SDS011;61711;52.266;10.542;2023-03-01T06:57:35;18.40;;;9.10;;
73474;SDS011;61711;52.266;10.542;2023-03-01T07:00:02;19.88;;;9.73;;
73474;SDS011;61711;52.266;10.542;2023-03-01T07:02:28;17.08;;;9.25;;
73474;SDS011;61711;52.266;10.542;2023-03-01T07:04:54;21.25;;;10.18;;
73474;SDS011;61711;52.266;10.542;2023-03-01T07:07:20;18.67;;;9.45;;
73474;SDS011;61711;52.266;10.542;2023-03-01T07:09:48;19.15;;;9.20;;
73474;SDS011;61711;52.266;10.542;2023-03-01T07:12:14;22.83;;;9.48;;
73474;SDS011;61711;52.266;10.542;2023-03-01T07:14:40;27.40;;;9.98;;
73474;SDS011;61711;52.266;10.542;2023-03-01T07:17:06;20.33;;;9.88;;
73474;SDS011;61711;52.266;10.542;2023-03-01T07:19:32;19.17;;;9.88;;
73474;SDS011;61711;52.266;10.542;2023-03-01T07:21:58;19.00;;;9.88;;
73474;SDS011;61711;52.266;10.542;2023-03-01T07:24:24;26.92;;;12.57;;
73474;SDS011;61711;52.266;10.542;2023-03-01T07:26:50;27.67;;;10.25;;
73474;SDS011;61711;52.266;10.542;2023-03-01T07:29:18;21.48;;;10.40;;
73474;SDS011;61711;52.266;10.542;2023-03-01T07:31:44;19.90;;;9.70;;
73474;SDS011;61711;52.266;10.542;2023-03-01T07:34:10;19.42;;;9.43;;
73474;SDS011;61711;52.266;10.542;2023-03-01T07:36:36;23.30;;;10.18;;
73474;SDS011;61711;52.266;10.542;2023-03-01T07:39:04;20.08;;;9.80;;
73474;SDS011;61711;52.266;10.542;2023-03-01T07:41:30;27.15;;;11.23;;
73474;SDS011;61711;52.266;10.542;2023-03-01T07:43:56;20.17;;;10.25;;
73474;SDS011;61711;52.266;10.542;2023-03-01T07:46:22;25.45;;;11.00;;
73474;SDS011;61711;52.266;10.542;2023-03-01T07:48:48;18.95;;;9.95;;
73474;SDS011;61711;52.266;10.542;2023-03-01T07:51:14;20.50;;;10.85;;
73474;SDS011;61711;52.266;10.542;2023-03-01T07:53:40;21.50;;;11.40;;
73474;SDS011;61711;52.266;10.542;2023-03-01T07:56:07;23.30;;;11.65;;
73474;SDS011;61711;52.266;10.542;2023-03-01T07:58:34;23.40;;;11.15;;
73474;SDS011;61711;52.266;10.542;2023-03-01T08:01:02;22.85;;;10.63;;
73474;SDS011;61711;52.266;10.542;2023-03-01T08:03:28;19.60;;;10.52;;
73474;SDS011;61711;52.266;10.542;2023-03-01T08:05:54;20.67;;;10.65;;
73474;SDS011;61711;52.266;10.542;2023-03-01T08:08:20;23.58;;;11.25;;
73474;SDS011;61711;52.266;10.542;2023-03-01T08:10:46;18.38;;;10.32;;
73474;SDS011;61711;52.266;10.542;2023-03-01T08:13:12;23.83;;;10.13;;
73474;SDS011;61711;52.266;10.542;2023-03-01T08:15:38;18.00;;;10.02;;
73474;SDS011;61711;52.266;10.542;2023-03-01T08:18:04;20.63;;;9.82;;
73474;SDS011;61711;52.266;10.542;2023-03-01T08:20:31;19.13;;;10.25;;
73474;SDS011;61711;52.266;10.542;2023-03-01T08:22:57;20.42;;;9.32;;
73474;SDS011;61711;52.266;10.542;2023-03-01T08:25:23;18.38;;;9.20;;
73474;SDS011;61711;52.266;10.542;2023-03-01T08:27:49;18.30;;;9.25;;
73474;SDS011;61711;52.266;10.542;2023-03-01T08:30:15;16.52;;;8.50;;
73474;SDS011;61711;52.266;10.542;2023-03-01T08:32:41;18.02;;;7.28;;
73474;SDS011;61711;52.266;10.542;2023-03-01T08:35:07;18.05;;;7.72;;
73474;SDS011;61711;52.266;10.542;2023-03-01T08:37:33;16.13;;;7.00;;
73474;SDS011;61711;52.266;10.542;2023-03-01T08:40:00;12.88;;;7.00;;
73474;SDS011;61711;52.266;10.542;2023-03-01T08:42:26;14.45;;;7.80;;
73474;SDS011;61711;52.266;10.542;2023-03-01T08:44:52;25.25;;;10.52;;
73474;SDS011;61711;52.266;10.542;2023-03-01T08:47:18;16.27;;;7.75;;
73474;SDS011;61711;52.266;10.542;2023-03-01T08:49:44;13.50;;;6.60;;
73474;SDS011;61711;52.266;10.542;2023-03-01T08:52:10;13.50;;;6.55;;
73474;SDS011;61711;52.266;10.542;2023-03-01T08:54:36;12.15;;;6.00;;
73474;SDS011;61711;52.266;10.542;2023-03-01T08:57:02;13.18;;;6.47;;
73474;SDS011;61711;52.266;10.542;2023-03-01T08:59:28;11.60;;;6.25;;
73474;SDS011;61711;52.266;10.542;2023-03-01T09:01:55;13.90;;;6.82;;
73474;SDS011;61711;52.266;10.542;2023-03-01T09:04:21;12.38;;;6.28;;
73474;SDS011;61711;52.266;10.542;2023-03-01T09:06:47;13.13;;;6.10;;
73474;SDS011;61711;52.266;10.542;2023-03-01T09:09:14;13.77;;;6.47;;
73474;SDS011;61711;52.266;10.542;2023-03-01T09:11:41;13.57;;;6.35;;
73474;SDS011;61711;52.266;10.542;2023-03-01T09:14:07;11.98;;;5.80;;
73474;SDS011;61711;52.266;10.542;2023-03-01T09:16:33;9.43;;;5.75;;
73474;SDS011;61711;52.266;10.542;2023-03-01T09:19:01;11.70;;;5.82;;
73474;SDS011;61711;52.266;10.542;2023-03-01T09:21:27;13.45;;;6.10;;
73474;SDS011;61711;52.266;10.542;2023-03-01T09:23:53;12.07;;;6.18;;
73474;SDS011;61711;52.266;10.542;2023-03-01T09:26:19;11.57;;;5.50;;
73474;SDS011;61711;52.266;10.542;2023-03-01T09:28:47;11.05;;;5.68;;
73474;SDS011;61711;52.266;10.542;2023-03-01T09:31:14;11.05;;;5.38;;
73474;SDS011;61711;52.266;10.542;2023-03-01T09:33:40;11.45;;;5.97;;
73474;SDS011;61711;52.266;10.542;2023-03-01T09:36:09;10.23;;;5.63;;
73474;SDS011;61711;52.266;10.542;2023-03-01T09:38:36;12.80;;;6.07;;
73474;SDS011;61711;52.266;10.542;2023-03-01T09:41:02;14.05;;;6.25;;
73474;SDS011;61711;52.266;10.542;2023-03-01T09:43:42;11.43;;;5.80;;
73474;SDS011;61711;52.266;10.542;2023-03-01T09:46:10;12.98;;;6.70;;
73474;SDS011;61711;52.266;10.542;2023-03-01T09:48:39;11.30;;;5.72;;
73474;SDS011;61711;52.266;10.542;2023-03-01T09:51:09;9.63;;;5.18;;
73474;SDS011;61711;52.266;10.542;2023-03-01T09:53:38;14.30;;;5.78;;
73474;SDS011;61711;52.266;10.542;2023-03-01T09:56:05;14.07;;;5.90;;
73474;SDS011;61711;52.266;10.542;2023-03-01T10:01:32;10.38;;;6.00;;
73474;SDS011;61711;52.266;10.542;2023-03-01T10:04:03;9.43;;;4.93;;
73474;SDS011;61711;52.266;10.542;2023-03-01T10:06:30;10.93;;;4.78;;
73474;SDS011;61711;52.266;10.542;2023-03-01T10:08:57;9.50;;;4.95;;
73474;SDS011;61711;52.266;10.542;2023-03-01T10:11:26;9.95;;;5.15;;
73474;SDS011;61711;52.266;10.542;2023-03-01T10:19:10;8.32;;;4.68;;
73474;SDS011;61711;52.266;10.542;2023-03-01T10:21:39;9.18;;;4.63;;
73474;SDS011;61711;52.266;10.542;2023-03-01T10:24:16;10.18;;;5.00;;
73474;SDS011;61711;52.266;10.542;2023-03-01T10:26:54;11.32;;;4.90;;
73474;SDS011;61711;52.266;10.542;2023-03-01T10:29:56;7.22;;;4.20;;
73474;SDS011;61711;52.266;10.542;2023-03-01T10:32:13;11.80;;;4.80;;
73474;SDS011;61711;52.266;10.542;2023-03-01T10:34:39;9.75;;;4.47;;
73474;SDS011;61711;52.266;10.542;2023-03-01T10:37:13;9.80;;;4.85;;
73474;SDS011;61711;52.266;10.542;2023-03-01T10:40:00;10.38;;;4.85;;
73474;SDS011;61711;52.266;10.542;2023-03-01T10:42:31;10.98;;;5.05;;
73474;SDS011;61711;52.266;10.542;2023-03-01T10:44:58;11.07;;;5.13;;
73474;SDS011;61711;52.266;10.542;2023-03-01T10:47:40;9.90;;;4.72;;
73474;SDS011;61711;52.266;10.542;2023-03-01T10:50:09;9.32;;;5.18;;
73474;SDS011;61711;52.266;10.542;2023-03-01T10:52:43;8.70;;;4.72;;
73474;SDS011;61711;52.266;10.542;2023-03-01T10:55:23;8.55;;;4.88;;
73474;SDS011;61711;52.266;10.542;2023-03-01T10:57:50;9.50;;;4.93;;
73474;SDS011;61711;52.266;10.542;2023-03-01T11:00:31;8.45;;;4.80;;
73474;SDS011;61711;52.266;10.542;2023-03-01T11:05:24;8.65;;;5.20;;
73474;SDS011;61711;52.266;10.542;2023-03-01T11:07:54;9.05;;;4.43;;
73474;SDS011;61711;52.266;10.542;2023-03-01T11:10:23;8.63;;;4.90;;
73474;SDS011;61711;52.266;10.542;2023-03-01T11:12:51;10.07;;;5.00;;
73474;SDS011;61711;52.266;10.542;2023-03-01T11:15:22;8.27;;;4.82;;
73474;SDS011;61711;52.266;10.542;2023-03-01T11:17:49;9.68;;;5.00;;
73474;SDS011;61711;52.266;10.542;2023-03-01T11:20:18;12.10;;;4.80;;
73474;SDS011;61711;52.266;10.542;2023-03-01T11:22:47;9.30;;;4.78;;
73474;SDS011;61711;52.266;10.542;2023-03-01T11:25:15;9.95;;;4.75;;
73474;SDS011;61711;52.266;10.542;2023-03-01T11:27:44;7.22;;;4.50;;
73474;SDS011;61711;52.266;10.542;2023-03-01T11:32:41;7.70;;;4.65;;
73474;SDS011;61711;52.266;10.542;2023-03-01T11:35:10;9.50;;;4.80;;
73474;SDS011;61711;52.266;10.542;2023-03-01T11:40:39;9.48;;;5.25;;
73474;SDS011;61711;52.266;10.542;2023-03-01T11:51:05;8.32;;;4.78;;
73474;SDS011;61711;52.266;10.542;2023-03-01T11:53:36;7.85;;;4.20;;
73474;SDS011;61711;52.266;10.542;2023-03-01T12:17:21;7.60;;;4.22;;
73474;SDS011;61711;52.266;10.542;2023-03-01T12:22:31;8.40;;;4.25;;
73474;SDS011;61711;52.266;10.542;2023-03-01T12:30:25;9.07;;;4.45;;
73474;SDS011;61711;52.266;10.542;2023-03-01T12:35:44;7.68;;;4.47;;
73474;SDS011;61711;52.266;10.542;2023-03-01T12:48:50;8.32;;;4.55;;
73474;SDS011;61711;52.266;10.542;2023-03-01T12:51:24;6.45;;;4.32;;
73474;SDS011;61711;52.266;10.542;2023-03-01T12:53:53;8.32;;;5.18;;
73474;SDS011;61711;52.266;10.542;2023-03-01T12:56:20;7.78;;;4.40;;
73474;SDS011;61711;52.266;10.542;2023-03-01T13:06:35;8.00;;;4.90;;
73474;SDS011;61711;52.266;10.542;2023-03-01T13:11:40;8.10;;;4.65;;
73474;SDS011;61711;52.266;10.542;2023-03-01T13:14:49;7.88;;;5.15;;
73474;SDS011;61711;52.266;10.542;2023-03-01T13:16:56;7.20;;;4.72;;
73474;SDS011;61711;52.266;10.542;2023-03-01T13:19:22;10.50;;;4.93;;
73474;SDS011;61711;52.266;10.542;2023-03-01T13:21:50;8.45;;;4.90;;
73474;SDS011;61711;52.266;10.542;2023-03-01T13:24:39;7.85;;;5.05;;
73474;SDS011;61711;52.266;10.542;2023-03-01T13:29:45;9.85;;;5.03;;
73474;SDS011;61711;52.266;10.542;2023-03-01T13:32:28;7.57;;;5.03;;
73474;SDS011;61711;52.266;10.542;2023-03-01T13:37:24;8.57;;;4.80;;
73474;SDS011;61711;52.266;10.542;2023-03-01T13:39:51;8.65;;;4.93;;
73474;SDS011;61711;52.266;10.542;2023-03-01T13:45:02;7.45;;;5.05;;
73474;SDS011;61711;52.266;10.542;2023-03-01T13:47:29;6.78;;;4.60;;
73474;SDS011;61711;52.266;10.542;2023-03-01T13:50:03;7.22;;;5.15;;
73474;SDS011;61711;52.266;10.542;2023-03-01T13:52:39;7.07;;;4.63;;
73474;SDS011;61711;52.266;10.542;2023-03-01T13:55:23;13.32;;;4.95;;
73474;SDS011;61711;52.266;10.542;2023-03-01T13:57:51;8.02;;;5.50;;
73474;SDS011;61711;52.266;10.542;2023-03-01T14:00:26;8.13;;;5.00;;
73474;SDS011;61711;52.266;10.542;2023-03-01T14:02:59;7.78;;;4.65;;
73474;SDS011;61711;52.266;10.542;2023-03-01T14:05:25;8.73;;;5.25;;
73474;SDS011;61711;52.266;10.542;2023-03-01T14:07:51;11.35;;;5.40;;
73474;SDS011;61711;52.266;10.542;2023-03-01T14:10:17;8.95;;;4.97;;
73474;SDS011;61711;52.266;10.542;2023-03-01T14:20:23;8.98;;;4.60;;
73474;SDS011;61711;52.266;10.542;2023-03-01T14:22:52;7.13;;;4.45;;
73474;SDS011;61711;52.266;10.542;2023-03-01T14:25:20;7.10;;;3.90;;
73474;SDS011;61711;52.266;10.542;2023-03-01T14:27:51;8.75;;;4.38;;
73474;SDS011;61711;52.266;10.542;2023-03-01T14:30:19;8.95;;;4.72;;
73474;SDS011;61711;52.266;10.542;2023-03-01T14:32:57;8.13;;;4.45;;
73474;SDS011;61711;52.266;10.542;2023-03-01T14:35:24;7.78;;;4.40;;
73474;SDS011;61711;52.266;10.542;2023-03-01T14:37:51;9.45;;;4.18;;
73474;SDS011;61711;52.266;10.542;2023-03-01T14:43:10;7.50;;;3.80;;
73474;SDS011;61711;52.266;10.542;2023-03-01T14:45:36;8.15;;;3.75;;
73474;SDS011;61711;52.266;10.542;2023-03-01T14:48:03;6.90;;;3.67;;
73474;SDS011;61711;52.266;10.542;2023-03-01T14:50:30;6.28;;;3.72;;
73474;SDS011;61711;52.266;10.542;2023-03-01T14:52:58;10.25;;;4.63;;
73474;SDS011;61711;52.266;10.542;2023-03-01T14:55:37;8.70;;;3.70;;
73474;SDS011;61711;52.266;10.542;2023-03-01T14:58:09;10.10;;;3.90;;
73474;SDS011;61711;52.266;10.542;2023-03-01T15:00:37;8.02;;;4.03;;
73474;SDS011;61711;52.266;10.542;2023-03-01T15:03:14;6.03;;;3.72;;
73474;SDS011;61711;52.266;10.542;2023-03-01T15:05:43;7.95;;;4.18;;
73474;SDS011;61711;52.266;10.542;2023-03-01T15:08:19;6.97;;;3.63;;
73474;SDS011;61711;52.266;10.542;2023-03-01T15:11:00;9.45;;;3.80;;
73474;SDS011;61711;52.266;10.542;2023-03-01T15:13:29;8.02;;;3.80;;
73474;SDS011;61711;52.266;10.542;2023-03-01T15:16:11;6.38;;;3.40;;
73474;SDS011;61711;52.266;10.542;2023-03-01T15:18:45;6.90;;;3.10;;
73474;SDS011;61711;52.266;10.542;2023-03-01T15:21:29;5.77;;;3.30;;
73474;SDS011;61711;52.266;10.542;2023-03-01T15:24:04;4.85;;;3.05;;
73474;SDS011;61711;52.266;10.542;2023-03-01T15:26:35;6.90;;;3.40;;
73474;SDS011;61711;52.266;10.542;2023-03-01T15:29:02;7.07;;;3.42;;
73474;SDS011;61711;52.266;10.542;2023-03-01T15:31:32;6.15;;;3.03;;
73474;SDS011;61711;52.266;10.542;2023-03-01T15:36:45;6.22;;;3.30;;
73474;SDS011;61711;52.266;10.542;2023-03-01T15:45:06;6.97;;;3.42;;
73474;SDS011;61711;52.266;10.542;2023-03-01T15:47:33;6.47;;;3.15;;
73474;SDS011;61711;52.266;10.542;2023-03-01T15:49:59;6.65;;;3.40;;
73474;SDS011;61711;52.266;10.542;2023-03-01T15:52:27;6.57;;;2.80;;
73474;SDS011;61711;52.266;10.542;2023-03-01T15:54:57;6.00;;;3.20;;
73474;SDS011;61711;52.266;10.542;2023-03-01T15:57:25;4.35;;;2.85;;
73474;SDS011;61711;52.266;10.542;2023-03-01T15:59:51;6.70;;;3.35;;
73474;SDS011;61711;52.266;10.542;2023-03-01T16:02:17;8.65;;;3.40;;
73474;SDS011;61711;52.266;10.542;2023-03-01T16:04:45;5.85;;;3.10;;
73474;SDS011;61711;52.266;10.542;2023-03-01T16:07:11;5.65;;;3.10;;
73474;SDS011;61711;52.266;10.542;2023-03-01T16:09:37;6.13;;;3.08;;
73474;SDS011;61711;52.266;10.542;2023-03-01T16:12:04;5.32;;;2.83;;
73474;SDS011;61711;52.266;10.542;2023-03-01T16:14:31;6.97;;;3.30;;
73474;SDS011;61711;52.266;10.542;2023-03-01T16:16:57;6.20;;;3.17;;
73474;SDS011;61711;52.266;10.542;2023-03-01T16:19:23;6.53;;;3.10;;
73474;SDS011;61711;52.266;10.542;2023-03-01T16:21:49;7.85;;;3.42;;
73474;SDS011;61711;52.266;10.542;2023-03-01T16:24:15;8.88;;;3.15;;
73474;SDS011;61711;52.266;10.542;2023-03-01T16:26:42;5.13;;;3.17;;
73474;SDS011;61711;52.266;10.542;2023-03-01T16:29:08;7.60;;;4.30;;